Time;durP1;ratioP1;P1;durP2;ratioP2;P2;SDS_P1;SDS_P2;PMS_P1;PMS_P2;Temp;Humidity;BMP_temperature;BMP_pressure;BME280_temperature;BME280_humidity;BME280_pressure;Samples;Min_cycle;Max_cycle;Signal;HPM_P1;HPM_P2
2022/02/16 00:02:16;;;;;;;7.00;3.92;;;6.10;99.90;;;4.48;99.26;99948.09;4870285;28;20035;-78
2022/02/16 00:04:42;;;;;;;7.32;3.50;;;6.10;99.90;;;4.44;99.85;99930.88;4890179;28;20037;-78
2022/02/16 00:07:08;;;;;;;12.18;4.60;;;6.00;99.90;;;4.44;100.00;99930.88;4902645;28;20038;-78
2022/02/16 00:09:34;;;;;;;6.18;3.97;;;6.00;99.90;;;4.42;100.00;99926.63;4876113;28;20039;-78
2022/02/16 00:12:01;;;;;;;6.45;3.20;;;6.00;99.90;;;4.37;100.00;99928.53;4884430;28;20038;-78
2022/02/16 00:14:36;;;;;;;8.98;3.80;;;6.00;99.90;;;4.40;100.00;99918.84;4886543;28;20115;-77
2022/02/16 00:17:02;;;;;;;7.20;3.47;;;6.00;99.90;;;4.36;100.00;99913.78;4905928;28;20504;-77
2022/02/16 00:19:28;;;;;;;10.63;3.63;;;6.00;99.90;;;4.36;100.00;99916.38;4879030;28;20474;-78
2022/02/16 00:21:54;;;;;;;6.40;3.50;;;5.90;99.90;;;4.32;100.00;99916.50;4856575;28;20027;-78
2022/02/16 00:24:25;;;;;;;9.50;3.30;;;5.90;99.90;;;4.34;100.00;99918.19;4887719;28;20453;-78
2022/02/16 00:26:51;;;;;;;6.57;3.00;;;5.90;99.90;;;4.30;100.00;99900.06;4860247;28;20039;-79
2022/02/16 00:29:17;;;;;;;4.82;3.10;;;5.90;99.90;;;4.33;100.00;99901.72;4899343;28;20037;-78
2022/02/16 00:31:43;;;;;;;10.15;3.60;;;5.90;99.90;;;4.31;100.00;99914.78;4891376;28;21150;-79
2022/02/16 00:34:09;;;;;;;5.47;2.95;;;5.90;99.90;;;4.31;100.00;99911.34;4867857;28;20035;-79
2022/02/16 00:36:40;;;;;;;4.45;3.00;;;5.90;99.90;;;4.30;100.00;99901.84;4869833;28;20049;-78
2022/02/16 00:39:06;;;;;;;5.30;3.25;;;5.90;99.90;;;4.30;100.00;99913.09;4912027;28;20568;-79
2022/02/16 00:41:32;;;;;;;6.90;3.05;;;5.90;99.90;;;4.31;100.00;99909.56;4871161;28;20089;-78
2022/02/16 00:43:58;;;;;;;6.25;3.10;;;5.90;99.90;;;4.31;100.00;99906.13;4889261;28;20042;-79
2022/02/16 00:46:24;;;;;;;9.13;3.35;;;5.90;99.90;;;4.28;100.00;99907.09;4878713;28;20101;-79
2022/02/16 00:48:50;;;;;;;6.95;3.38;;;5.90;99.90;;;4.30;100.00;99910.50;4900501;28;20694;-78
2022/02/16 00:51:25;;;;;;;7.70;3.20;;;5.90;99.90;;;4.28;100.00;99895.81;4881707;28;20027;-79
2022/02/16 00:53:51;;;;;;;6.43;3.00;;;5.90;99.90;;;4.26;100.00;99902.84;4884700;28;20031;-78
2022/02/16 00:56:17;;;;;;;11.88;4.05;;;5.90;99.90;;;4.24;100.00;99892.44;4871587;28;20050;-78
2022/02/16 00:58:50;;;;;;;10.30;3.50;;;5.80;99.90;;;4.24;100.00;99876.81;4851194;28;20527;-79
2022/02/16 01:01:16;;;;;;;9.45;3.60;;;5.80;99.90;;;4.23;100.00;99877.72;4889013;28;20701;-79
2022/02/16 01:03:42;;;;;;;8.82;3.20;;;5.80;99.90;;;4.20;100.00;99877.81;4881391;28;20058;-79
2022/02/16 01:06:08;;;;;;;7.15;3.33;;;5.80;99.90;;;4.19;100.00;99878.75;4885188;28;20084;-78
2022/02/16 01:08:34;;;;;;;7.47;3.83;;;5.80;99.90;;;4.20;100.00;99880.44;4923575;28;20493;-78
2022/02/16 01:11:07;;;;;;;10.05;3.53;;;5.80;99.90;;;4.18;100.00;99864.00;4897945;28;20396;-79
2022/02/16 01:13:33;;;;;;;7.15;3.70;;;5.80;99.90;;;4.21;100.00;99871.72;4879185;28;20109;-79
2022/02/16 01:15:59;;;;;;;6.50;3.00;;;5.80;99.90;;;4.17;100.00;99870.13;4911366;28;20107;-78
2022/02/16 01:18:25;;;;;;;5.43;3.00;;;5.80;99.90;;;4.21;100.00;99861.31;4919168;28;20038;-78
2022/02/16 01:20:56;;;;;;;8.98;3.40;;;5.80;99.90;;;4.23;100.00;99858.63;4876219;28;20031;-78
2022/02/16 01:23:21;;;;;;;6.63;3.25;;;5.80;99.90;;;4.21;100.00;99856.09;4890560;28;20043;-78
2022/02/16 01:25:48;;;;;;;8.65;3.22;;;5.80;99.90;;;4.22;100.00;99847.34;4894792;28;20509;-78
2022/02/16 01:28:14;;;;;;;6.82;3.30;;;5.80;99.90;;;4.22;100.00;99857.78;4887139;28;20098;-78
2022/02/16 01:30:40;;;;;;;8.95;3.15;;;5.80;99.90;;;4.22;100.00;99849.97;4872285;28;20042;-79
2022/02/16 01:33:05;;;;;;;7.80;3.10;;;5.80;99.90;;;4.25;100.00;99838.56;4888217;28;20050;-78
2022/02/16 01:35:36;;;;;;;11.52;3.42;;;5.80;99.90;;;4.26;100.00;99843.75;4947141;28;20042;-78
2022/02/16 01:38:03;;;;;;;8.27;3.00;;;5.80;99.90;;;4.22;100.00;99834.31;4883451;28;20034;-80
2022/02/16 01:40:29;;;;;;;8.73;3.00;;;5.80;99.90;;;4.22;100.00;99831.72;4891557;28;20024;-79
2022/02/16 01:42:55;;;;;;;5.53;2.95;;;5.80;99.90;;;4.25;100.00;99821.16;4898010;28;20039;-78
2022/02/16 01:45:27;;;;;;;9.02;3.28;;;5.80;99.90;;;4.27;100.00;99819.38;4894759;28;20474;-79
2022/02/16 01:47:54;;;;;;;4.82;3.05;;;5.80;99.90;;;4.28;100.00;99815.03;4899044;28;20117;-78
2022/02/16 01:50:20;;;;;;;9.18;3.67;;;5.90;99.90;;;4.29;100.00;99817.56;4884345;28;20040;-78
2022/02/16 01:52:47;;;;;;;6.15;3.08;;;5.90;99.90;;;4.31;100.00;99807.94;4925905;28;20021;-78
2022/02/16 01:55:14;;;;;;;7.38;3.03;;;5.90;99.90;;;4.34;100.00;99804.34;4898917;28;20039;-77
2022/02/16 01:57:43;;;;;;;4.55;3.00;;;5.90;99.90;;;4.32;100.00;99799.22;4894118;28;20015;-78
2022/02/16 02:00:09;;;;;;;8.15;2.95;;;5.90;99.90;;;4.37;100.00;99800.81;4894874;28;20110;-78
2022/02/16 02:02:36;;;;;;;7.28;2.80;;;5.90;99.90;;;4.40;100.00;99798.09;4895817;28;20568;-78
2022/02/16 02:05:03;;;;;;;7.03;3.05;;;6.00;99.90;;;4.40;100.00;99785.91;4876868;28;20045;-78
2022/02/16 02:07:29;;;;;;;5.35;2.60;;;5.90;99.90;;;4.40;100.00;99778.06;4873153;28;20034;-79
2022/02/16 02:10:05;;;;;;;6.97;2.80;;;6.00;99.90;;;4.44;100.00;99777.06;4887246;28;20057;-78
2022/02/16 02:12:31;;;;;;;4.40;2.70;;;6.00;99.90;;;4.47;100.00;99782.19;4915081;28;20021;-78
2022/02/16 02:14:57;;;;;;;9.00;2.50;;;6.00;99.90;;;4.48;100.00;99777.81;4918773;28;20263;-78
2022/02/16 02:17:27;;;;;;;8.50;2.85;;;6.00;99.90;;;4.51;100.00;99773.34;4896208;28;20497;-78
2022/02/16 02:19:53;;;;;;;6.22;2.40;;;6.00;99.90;;;4.52;100.00;99772.44;4880631;28;20035;-79
2022/02/16 02:22:19;;;;;;;8.50;2.72;;;6.10;99.90;;;4.52;100.00;99772.44;4906791;28;20416;-78
2022/02/16 02:24:45;;;;;;;8.25;2.67;;;6.10;99.90;;;4.58;100.00;99773.09;4878047;28;20151;-78
2022/02/16 02:27:11;;;;;;;9.18;2.75;;;6.10;99.90;;;4.58;100.00;99758.31;4875845;28;20041;-79
2022/02/16 02:29:39;;;;;;;7.88;2.95;;;6.10;99.90;;;4.62;100.00;99762.53;4956643;28;20433;-77
2022/02/16 02:32:10;;;;;;;7.22;2.63;;;6.10;99.90;;;4.62;100.00;99759.03;4908958;28;20034;-79
2022/02/16 02:34:36;;;;;;;8.20;2.92;;;6.20;99.90;;;4.65;100.00;99751.97;4898387;28;20021;-78
2022/02/16 02:37:02;;;;;;;7.78;2.70;;;6.20;99.90;;;4.68;100.00;99749.22;4919679;28;20026;-78
2022/02/16 02:39:28;;;;;;;3.47;2.33;;;6.20;99.90;;;4.67;100.00;99737.09;4936214;28;20030;-78
2022/02/16 02:42:00;;;;;;;8.20;2.90;;;6.20;99.90;;;4.68;100.00;99735.34;4920325;28;20037;-78
2022/02/16 02:44:26;;;;;;;5.72;2.45;;;6.20;99.90;;;4.69;100.00;99734.44;4879301;28;21466;-78
2022/02/16 02:46:53;;;;;;;8.90;3.00;;;6.20;99.90;;;4.68;100.00;99728.38;4941173;28;20567;-78
2022/02/16 02:49:19;;;;;;;8.15;2.95;;;6.20;99.90;;;4.70;100.00;99723.09;4873778;28;20047;-77
2022/02/16 02:51:45;;;;;;;11.70;2.78;;;6.20;99.90;;;4.73;100.00;99731.66;4873729;28;20027;-78
2022/02/16 02:54:17;;;;;;;7.85;2.80;;;6.20;99.90;;;4.78;100.00;99725.44;4900398;28;20038;-79
2022/02/16 02:56:43;;;;;;;9.48;2.80;;;6.20;99.90;;;4.74;100.00;99732.50;4890375;28;20058;-78
2022/02/16 02:59:09;;;;;;;4.93;2.80;;;6.30;99.90;;;4.78;100.00;99733.25;4898137;28;20039;-77
2022/02/16 03:01:35;;;;;;;9.15;2.92;;;6.30;99.90;;;4.79;100.00;99727.13;4890532;28;21176;-77
2022/02/16 03:04:01;;;;;;;11.27;3.10;;;6.30;99.90;;;4.80;100.00;99732.28;4895639;28;20100;-77
2022/02/16 03:06:27;;;;;;;8.43;2.58;;;6.30;99.90;;;4.78;100.00;99725.44;4899206;28;20409;-78
2022/02/16 03:08:55;;;;;;;8.88;2.85;;;6.30;99.90;;;4.78;100.00;99717.59;4921211;28;20424;-78
2022/02/16 03:11:21;;;;;;;9.30;3.30;;;6.30;99.90;;;4.80;100.00;99721.00;4856973;28;20430;-79
2022/02/16 03:13:48;;;;;;;8.82;3.20;;;6.30;99.90;;;4.82;100.00;99721.78;4901558;28;20026;-77
2022/02/16 03:16:14;;;;;;;6.35;2.78;;;6.30;99.90;;;4.81;100.00;99707.03;4906897;28;20039;-78
2022/02/16 03:18:40;;;;;;;10.55;2.88;;;6.30;99.90;;;4.86;100.00;99711.19;4914026;28;20057;-78
2022/02/16 03:21:14;;;;;;;9.90;3.05;;;6.30;99.90;;;4.89;100.00;99707.59;4905733;28;20030;-77
2022/02/16 03:23:40;;;;;;;6.07;2.88;;;6.30;99.90;;;4.86;100.00;99705.97;4897088;28;20029;-78
2022/02/16 03:26:06;;;;;;;10.13;3.42;;;6.30;99.90;;;4.78;100.00;99710.63;4907019;28;20479;-78
2022/02/16 03:28:31;;;;;;;8.32;3.15;;;6.30;99.90;;;4.78;100.00;99710.63;4882670;28;20040;-78
2022/02/16 03:30:57;;;;;;;9.35;3.25;;;6.30;99.90;;;4.83;100.00;99705.22;4887150;28;20022;-77
2022/02/16 03:33:28;;;;;;;6.03;3.35;;;6.30;99.90;;;4.83;100.00;99707.81;4908210;28;20116;-78
2022/02/16 03:35:54;;;;;;;9.93;3.42;;;6.30;99.90;;;4.82;100.00;99713.97;4854099;28;20101;-79
2022/02/16 03:38:20;;;;;;;5.40;2.90;;;6.30;99.90;;;4.84;100.00;99725.19;4932337;28;20039;-77
2022/02/16 03:40:46;;;;;;;8.65;3.53;;;6.30;99.90;;;4.81;100.00;99717.47;4922568;28;20106;-77
2022/02/16 03:43:12;;;;;;;8.38;3.50;;;6.30;99.90;;;4.86;100.00;99718.13;4886460;28;20600;-77
2022/02/16 03:45:37;;;;;;;8.00;3.42;;;6.40;99.90;;;4.84;100.00;99713.00;4901206;28;20032;-77
2022/02/16 03:48:08;;;;;;;9.68;3.50;;;6.40;99.90;;;4.86;100.00;99715.53;4955516;28;20521;-78
2022/02/16 03:50:35;;;;;;;8.73;3.30;;;6.40;99.90;;;4.82;100.00;99711.34;4915921;28;20023;-78
2022/02/16 03:53:01;;;;;;;7.10;3.05;;;6.30;99.90;;;4.87;100.00;99702.44;4895878;28;20031;-77
2022/02/16 03:55:27;;;;;;;8.93;2.92;;;6.30;99.90;;;4.89;100.00;99708.44;4893165;28;20027;-77
2022/02/16 03:57:53;;;;;;;11.63;3.50;;;6.40;99.90;;;4.86;100.00;99703.34;4856643;28;20051;-77
2022/02/16 04:00:19;;;;;;;9.57;3.72;;;6.40;99.90;;;4.83;100.00;99705.22;4890477;28;20031;-78
2022/02/16 04:02:48;;;;;;;9.35;3.90;;;6.30;99.90;;;4.86;100.00;99692.03;4886018;28;20384;-78
2022/02/16 04:05:14;;;;;;;17.33;3.92;;;6.40;99.90;;;4.88;100.00;99696.31;4915806;28;20022;-77
2022/02/16 04:07:41;;;;;;;15.95;3.88;;;6.40;99.90;;;4.87;100.00;99691.16;4875539;28;20023;-78
2022/02/16 04:10:08;;;;;;;10.48;3.80;;;6.30;99.90;;;4.86;100.00;99697.25;4865301;28;20042;-78
2022/02/16 04:12:35;;;;;;;8.90;3.38;;;6.40;99.90;;;4.88;100.00;99698.91;4880850;28;20045;-77
2022/02/16 04:15:06;;;;;;;8.82;3.83;;;6.40;99.90;;;4.84;100.00;99689.50;4925312;28;20038;-78
2022/02/16 04:17:32;;;;;;;10.25;3.30;;;6.40;99.90;;;4.81;100.00;99694.84;4956608;28;20030;-78
2022/02/16 04:19:58;;;;;;;11.75;3.53;;;6.40;99.90;;;4.87;100.00;99685.94;4901129;28;20037;-78
2022/02/16 04:22:23;;;;;;;9.20;3.65;;;6.40;99.90;;;4.89;100.00;99684.97;4905523;28;20039;-77
2022/02/16 04:24:50;;;;;;;9.43;3.78;;;6.40;99.90;;;4.86;100.00;99663.34;4883830;28;20027;-78
2022/02/16 04:27:21;;;;;;;10.75;3.78;;;6.40;99.90;;;4.87;100.00;99641.59;4875899;28;20023;-78
2022/02/16 04:29:46;;;;;;;8.98;3.22;;;6.40;99.90;;;4.84;100.00;99663.44;4873037;28;20098;-77
2022/02/16 04:32:12;;;;;;;7.85;3.53;;;6.30;99.90;;;4.89;100.00;99676.28;4888714;28;20026;-78
2022/02/16 04:34:38;;;;;;;6.93;3.40;;;6.40;99.90;;;4.86;100.00;99686.81;4892444;28;20513;-77
2022/02/16 04:37:05;;;;;;;10.02;3.83;;;6.40;99.90;;;4.86;100.00;99695.53;4885535;28;20083;-78
2022/02/16 04:39:33;;;;;;;7.70;3.42;;;6.40;99.90;;;4.83;100.00;99698.25;4888524;28;20027;-78
2022/02/16 04:42:02;;;;;;;9.90;3.47;;;6.40;99.90;;;4.91;100.00;99697.94;4902360;28;20026;-79
2022/02/16 04:44:28;;;;;;;9.52;3.88;;;6.40;99.90;;;4.91;100.00;99688.34;4904498;28;20054;-78
2022/02/16 04:46:53;;;;;;;10.80;3.92;;;6.40;99.90;;;4.88;100.00;99691.09;4886780;28;20516;-78
2022/02/16 04:49:19;;;;;;;12.05;4.45;;;6.40;99.90;;;4.89;100.00;99692.78;4886955;28;20124;-77
2022/02/16 04:51:45;;;;;;;7.22;4.30;;;6.40;99.90;;;4.86;100.00;99692.91;4869462;28;20027;-78
2022/02/16 04:54:16;;;;;;;11.75;4.63;;;6.40;99.90;;;4.86;100.00;99689.44;4912920;28;20027;-78
2022/02/16 04:56:42;;;;;;;10.65;4.78;;;6.40;99.90;;;4.85;100.00;99685.16;4905425;28;20052;-78
2022/02/16 04:59:08;;;;;;;11.55;4.47;;;6.40;99.90;;;4.82;100.00;99673.06;4879154;28;20034;-77
2022/02/16 05:01:34;;;;;;;10.25;4.97;;;6.30;99.90;;;4.82;100.00;99677.44;4872713;28;20063;-77
2022/02/16 05:04:00;;;;;;;10.05;4.43;;;6.30;99.90;;;4.81;100.00;99673.97;4831302;28;20035;-77
2022/02/16 05:06:26;;;;;;;9.93;4.80;;;6.30;99.90;;;4.78;100.00;99668.88;4875394;28;20162;-77
2022/02/16 05:08:57;;;;;;;8.98;4.30;;;6.30;99.90;;;4.78;100.00;99660.22;4898490;28;21184;-77
2022/02/16 05:11:24;;;;;;;13.10;4.72;;;6.30;99.90;;;4.76;100.00;99660.28;4895873;28;20030;-78
2022/02/16 05:13:50;;;;;;;9.45;5.47;;;6.30;99.90;;;4.76;100.00;99664.66;4895850;28;20111;-78
2022/02/16 05:16:16;;;;;;;17.45;5.35;;;6.30;99.90;;;4.75;100.00;99668.16;4887995;28;20047;-78
2022/02/16 05:18:42;;;;;;;14.75;5.80;;;6.30;99.90;;;4.75;100.00;99660.31;4879409;28;20498;-77
2022/02/16 05:21:11;;;;;;;9.32;5.65;;;6.30;99.90;;;4.72;100.00;99658.69;4884312;28;24507;-77
2022/02/16 05:23:36;;;;;;;12.45;5.88;;;6.20;99.90;;;4.68;100.00;99647.53;4864366;28;20034;-78
2022/02/16 05:26:02;;;;;;;10.30;5.75;;;6.20;99.90;;;4.64;100.00;99648.56;4888677;28;20032;-77
2022/02/16 05:28:28;;;;;;;8.60;5.95;;;6.20;99.90;;;4.63;100.00;99649.47;4882763;28;20615;-77
2022/02/16 05:30:54;;;;;;;9.88;5.30;;;6.20;99.90;;;4.60;100.00;99652.22;4913237;28;20027;-77
2022/02/16 05:33:21;;;;;;;11.10;5.95;;;6.20;99.90;;;4.60;100.00;99640.91;4944912;28;20113;-77
2022/02/16 05:35:52;;;;;;;11.75;5.88;;;6.20;99.90;;;4.60;100.00;99639.19;4912252;28;20059;-78
2022/02/16 05:38:18;;;;;;;16.23;5.75;;;6.20;99.90;;;4.60;100.00;99640.91;4846299;28;20034;-77
2022/02/16 05:40:44;;;;;;;16.55;5.95;;;6.20;99.90;;;4.63;100.00;99639.06;4885376;28;20470;-77
2022/02/16 05:43:13;;;;;;;10.77;6.97;;;6.10;99.90;;;4.60;100.00;99636.56;4871353;28;20031;-77
2022/02/16 05:45:48;;;;;;;14.55;6.05;;;6.10;99.90;;;4.60;100.00;99630.50;4906757;28;20034;-78
2022/02/16 05:48:20;;;;;;;12.65;6.80;;;6.20;99.90;;;4.63;100.00;99633.84;4910958;28;20501;-77
2022/02/16 05:50:49;;;;;;;8.77;5.78;;;6.20;99.90;;;4.61;100.00;99624.38;4903923;28;20030;-78
2022/02/16 05:53:15;;;;;;;13.60;6.93;;;;;;;4.60;100.00;99617.44;4904617;28;20066;-78
2022/02/16 05:55:41;;;;;;;12.02;6.70;;;6.20;99.90;;;4.63;100.00;99620.81;4940629;28;20042;-77
2022/02/16 05:58:07;;;;;;;15.15;6.45;;;6.20;99.90;;;4.66;100.00;99612.00;4896712;28;20037;-78
2022/02/16 06:00:33;;;;;;;15.35;6.68;;;6.20;99.90;;;4.65;100.00;99603.34;4899835;28;20031;-77
2022/02/16 06:03:02;;;;;;;10.25;6.00;;;6.20;99.90;;;4.63;100.00;99601.72;4888731;28;20592;-77
2022/02/16 06:05:28;;;;;;;9.48;6.10;;;6.20;99.90;;;4.63;100.00;99602.53;4892900;28;20051;-78
2022/02/16 06:07:53;;;;;;;10.27;5.90;;;6.10;99.90;;;4.63;100.00;99591.28;4896295;28;20106;-78
2022/02/16 06:10:19;;;;;;;11.82;6.07;;;6.20;99.90;;;4.64;100.00;99596.41;4909078;28;20705;-78
2022/02/16 06:12:45;;;;;;;12.07;5.75;;;6.20;99.90;;;4.65;100.00;99587.69;4920819;28;20108;-77
2022/02/16 06:15:11;;;;;;;14.60;6.07;;;6.20;99.90;;;4.69;100.00;99588.44;4878700;28;20039;-77
2022/02/16 06:17:38;;;;;;;9.07;5.75;;;6.20;99.90;;;4.70;100.00;99575.31;4877663;28;22063;-78
2022/02/16 06:20:09;;;;;;;11.00;6.53;;;6.20;99.90;;;4.70;100.00;99577.91;4907944;28;20035;-77
2022/02/16 06:22:35;;;;;;;10.07;6.00;;;6.20;99.90;;;4.69;100.00;99571.00;4907253;28;20083;-77
2022/02/16 06:25:02;;;;;;;12.57;5.72;;;6.20;99.90;;;4.72;100.00;99559.59;4881472;28;20032;-78
2022/02/16 06:27:31;;;;;;;8.60;5.35;;;6.20;99.90;;;4.73;100.00;99550.88;4886999;28;20031;-77
2022/02/16 06:30:01;;;;;;;8.52;5.05;;;6.20;99.90;;;4.72;100.00;99551.78;4873859;28;20038;-77
2022/02/16 06:32:28;;;;;;;10.60;5.75;;;6.20;99.90;;;4.73;100.00;99530.88;4870344;28;20041;-78
2022/02/16 06:34:54;;;;;;;8.40;5.18;;;6.20;99.90;;;4.74;100.00;99536.91;4886167;28;20486;-78
2022/02/16 06:37:19;;;;;;;8.63;4.55;;;6.20;99.90;;;4.70;100.00;99522.31;4862317;28;20046;-78
2022/02/16 06:39:46;;;;;;;9.20;4.80;;;6.30;99.90;;;4.73;100.00;99516.97;4897828;28;20028;-78
2022/02/16 06:42:17;;;;;;;7.97;4.75;;;6.20;99.90;;;4.75;100.00;99511.69;4885043;28;20059;-78
2022/02/16 06:44:44;;;;;;;6.22;4.25;;;6.30;99.90;;;4.72;100.00;99500.47;4884714;28;20045;-77
2022/02/16 06:47:09;;;;;;;8.07;4.45;;;6.30;99.90;;;4.75;100.00;99509.91;4903030;28;20042;-77
2022/02/16 06:49:36;;;;;;;8.25;4.68;;;6.30;99.90;;;4.77;100.00;99504.63;4912636;28;20525;-77
2022/02/16 06:52:03;;;;;;;9.70;4.80;;;6.30;99.90;;;4.82;100.00;99502.72;4903484;28;20027;-78
2022/02/16 06:54:34;;;;;;;10.40;4.88;;;6.30;99.90;;;4.80;100.00;99483.66;4891530;28;20042;-77
2022/02/16 06:57:00;;;;;;;12.38;5.13;;;6.30;99.90;;;4.83;100.00;99479.16;4903566;28;20126;-77
2022/02/16 06:59:26;;;;;;;11.05;5.30;;;6.30;99.90;;;4.83;100.00;99483.53;4904893;28;20031;-78
2022/02/16 07:01:52;;;;;;;8.48;5.25;;;6.30;99.90;;;4.85;100.00;99482.53;4911092;28;20030;-77
2022/02/16 07:04:18;;;;;;;11.48;5.50;;;6.30;99.90;;;4.81;100.00;99475.75;4877660;28;20557;-78
2022/02/16 07:06:44;;;;;;;9.50;5.50;;;6.30;99.90;;;4.82;100.00;99472.25;4879085;28;20023;-77
2022/02/16 07:09:12;;;;;;;11.88;5.00;;;6.30;99.90;;;4.84;100.00;99474.81;4870580;28;20504;-77
2022/02/16 07:11:38;;;;;;;15.07;5.63;;;6.30;99.90;;;4.80;100.00;99468.03;4878339;28;20135;-78
2022/02/16 07:14:04;;;;;;;12.77;5.03;;;6.30;99.90;;;4.78;100.00;99475.91;4891604;28;20365;-78
2022/02/16 07:16:30;;;;;;;10.80;5.90;;;6.30;99.90;;;4.81;100.00;99462.72;4903655;28;20549;-77
2022/02/16 07:18:56;;;;;;;10.77;5.60;;;6.30;99.90;;;4.81;100.00;99459.25;4882513;28;20400;-77
2022/02/16 07:21:26;;;;;;;12.38;5.82;;;6.30;99.90;;;4.84;100.00;99469.59;4856644;28;20126;-77
2022/02/16 07:23:53;;;;;;;9.65;5.22;;;6.30;99.90;;;4.82;100.00;99466.19;4866511;28;20039;-77
2022/02/16 07:26:21;;;;;;;11.00;5.10;;;6.40;99.90;;;4.81;100.00;99454.88;4868837;28;20734;-78
2022/02/16 07:28:47;;;;;;;11.23;5.13;;;6.30;99.90;;;4.85;100.00;99460.84;4921664;28;20742;-77
2022/02/16 07:31:13;;;;;;;13.43;5.45;;;6.40;99.90;;;4.93;100.00;99456.13;4928973;28;20085;-77
2022/02/16 07:33:48;;;;;;;8.20;4.90;;;6.40;99.90;;;4.93;100.00;99449.16;4896519;28;20373;-77
2022/02/16 07:36:14;;;;;;;6.88;3.88;;;6.40;99.90;;;4.98;100.00;99441.13;4885414;28;20034;-77
2022/02/16 07:38:40;;;;;;;11.57;4.57;;;6.50;99.90;;;5.06;100.00;99444.25;4874893;28;20049;-77
2022/02/16 07:41:06;;;;;;;8.63;4.22;;;6.50;99.90;;;5.08;100.00;99442.41;4883111;28;20030;-78
2022/02/16 07:43:40;;;;;;;5.72;3.80;;;6.50;99.90;;;5.07;100.00;99430.25;4908021;28;20030;-77
2022/02/16 07:46:06;;;;;;;6.63;3.70;;;6.60;99.90;;;5.09;100.00;99423.22;4895340;28;20113;-78
2022/02/16 07:48:32;;;;;;;6.90;3.83;;;6.60;99.90;;;5.08;100.00;99418.09;4911282;28;20122;-78
2022/02/16 07:50:57;;;;;;;10.38;4.53;;;6.60;99.90;;;5.12;100.00;99407.44;4910279;28;20026;-77
2022/02/16 07:53:36;;;;;;;10.68;3.70;;;6.60;99.90;;;5.18;100.00;99405.47;4928365;28;20525;-78
2022/02/16 07:56:05;;;;;;;8.90;3.40;;;6.60;99.90;;;5.22;100.00;99396.56;4972281;28;20121;-77
2022/02/16 07:58:33;;;;;;;10.15;3.70;;;6.60;99.90;;;5.24;100.00;99386.91;4896759;28;20039;-78
2022/02/16 08:00:59;;;;;;;9.00;3.70;;;6.70;99.90;;;5.32;100.00;99392.63;4883859;28;20034;-77
2022/02/16 08:03:25;;;;;;;10.48;3.40;;;6.70;99.90;;;5.38;100.00;99383.66;4876667;28;20046;-78
2022/02/16 08:05:50;;;;;;;6.22;3.20;;;6.70;99.90;;;5.41;100.00;99383.53;4856355;28;20031;-78
2022/02/16 08:08:17;;;;;;;6.13;2.92;;;6.80;99.90;;;5.40;100.00;99379.22;4863501;28;20037;-78
2022/02/16 08:10:49;;;;;;;7.72;2.72;;;6.80;99.90;;;5.34;100.00;99370.75;4898402;28;20019;-77
2022/02/16 08:13:17;;;;;;;6.43;2.90;;;6.80;99.90;;;5.36;100.00;99375.91;4877819;28;20535;-78
2022/02/16 08:15:43;;;;;;;6.30;2.35;;;6.80;99.90;;;5.38;100.00;99358.44;4927034;28;20081;-78
2022/02/16 08:18:09;;;;;;;6.15;2.63;;;6.80;99.90;;;5.39;100.00;99356.66;4912395;28;20510;-78
2022/02/16 08:20:42;;;;;;;9.95;2.67;;;6.80;99.90;;;5.41;100.00;99339.16;4886638;28;20073;-78
2022/02/16 08:23:09;;;;;;;5.85;2.40;;;6.80;99.90;;;5.40;100.00;99340.06;4859250;28;20508;-78
2022/02/16 08:25:38;;;;;;;4.88;2.33;;;6.80;99.90;;;5.42;100.00;99325.16;4915444;28;20027;-77
2022/02/16 08:28:09;;;;;;;5.85;2.30;;;6.90;99.90;;;5.45;100.00;99325.88;4928689;28;20027;-77
2022/02/16 08:30:36;;;;;;;4.57;2.30;;;6.80;99.90;;;5.44;100.00;99311.16;4893913;28;20929;-77
2022/02/16 08:33:02;;;;;;;3.92;2.15;;;6.90;99.90;;;5.50;100.00;99303.00;4912407;28;20119;-78
2022/02/16 08:35:29;;;;;;;4.50;2.30;;;6.90;99.90;;;5.52;100.00;99285.50;4882540;28;20024;-78
2022/02/16 08:37:57;;;;;;;5.53;2.67;;;6.90;99.90;;;5.53;100.00;99275.91;4945574;28;20064;-78
2022/02/16 08:40:25;;;;;;;4.85;2.00;;;6.90;99.90;;;5.59;100.00;99261.69;4897409;28;20034;-78
2022/02/16 08:42:51;;;;;;;3.38;1.75;;;7.00;99.90;;;5.65;100.00;99264.84;4890976;28;20049;-78
2022/02/16 08:45:17;;;;;;;4.78;2.15;;;7.00;99.90;;;5.70;100.00;99256.78;4874414;28;20754;-76
2022/02/16 08:47:43;;;;;;;8.32;2.25;;;7.10;99.90;;;5.75;100.00;99245.19;4890788;28;20506;-77
2022/02/16 08:50:10;;;;;;;3.28;1.73;;;7.10;99.90;;;5.77;100.00;99250.34;4891085;28;20039;-77
2022/02/16 08:52:42;;;;;;;3.13;1.98;;;7.10;99.90;;;5.82;100.00;99237.88;4913656;28;20015;-77
2022/02/16 08:55:08;;;;;;;3.72;1.80;;;7.20;99.90;;;5.88;100.00;99239.34;4896329;28;20030;-78
2022/02/16 08:57:36;;;;;;;3.63;1.77;;;7.20;99.90;;;5.87;100.00;99232.41;4937807;28;20066;-78
2022/02/16 09:00:11;;;;;;;5.07;1.63;;;7.20;99.90;;;5.81;100.00;99236.22;4896490;28;20023;-78
2022/02/16 09:02:37;;;;;;;4.75;1.67;;;7.20;99.90;;;5.80;100.00;99231.91;4887264;28;20502;-79
2022/02/16 09:05:05;;;;;;;3.88;1.80;;;7.20;99.90;;;5.76;100.00;99219.91;4871403;28;20080;-79
2022/02/16 09:07:31;;;;;;;3.08;1.70;;;7.20;99.90;;;5.79;100.00;99211.94;4905405;28;20494;-78
2022/02/16 09:10:03;;;;;;;2.38;1.70;;;7.20;99.90;;;5.75;100.00;99198.19;4898260;28;20023;-78
2022/02/16 09:12:30;;;;;;;3.63;1.88;;;7.20;99.90;;;5.76;100.00;99196.41;4909905;28;20528;-78
2022/02/16 09:14:57;;;;;;;1.88;1.50;;;7.20;99.90;;;5.74;100.00;99190.41;4868935;28;20042;-78
2022/02/16 09:17:29;;;;;;;2.22;1.50;;;7.20;99.90;;;5.73;100.00;99183.50;4862827;28;20054;-79
2022/02/16 09:19:56;;;;;;;3.17;1.40;;;7.20;99.90;;;5.76;100.00;99167.66;4894283;28;20074;-78
2022/02/16 09:22:25;;;;;;;5.15;1.70;;;7.20;99.90;;;5.73;100.00;99167.84;4906932;28;20054;-78
2022/02/16 09:24:54;;;;;;;5.38;1.67;;;7.20;99.90;;;5.80;100.00;99166.59;4897680;28;20051;-78
2022/02/16 09:27:20;;;;;;;3.30;1.40;;;7.20;99.90;;;5.82;100.00;99166.53;4927086;28;20031;-79
2022/02/16 09:29:48;;;;;;;1.92;1.17;;;7.20;99.90;;;5.81;100.00;99154.38;4920861;28;20387;-79
2022/02/16 09:32:15;;;;;;;2.65;1.70;;;7.20;99.90;;;5.82;100.00;99145.63;4914835;28;20039;-78
2022/02/16 09:34:44;;;;;;;4.85;1.45;;;7.20;99.90;;;5.80;100.00;99137.84;4941740;28;20144;-78
2022/02/16 09:37:13;;;;;;;5.53;1.40;;;7.20;99.90;;;5.86;100.00;99137.53;4893224;28;20046;-79
2022/02/16 09:39:39;;;;;;;2.47;1.70;;;7.20;99.90;;;5.81;100.00;99128.25;4913379;28;20030;-78
2022/02/16 09:42:06;;;;;;;2.30;1.35;;;7.20;99.90;;;5.82;100.00;99119.50;4921948;28;20035;-79
2022/02/16 09:44:55;;;;;;;4.05;1.40;;;7.20;99.90;;;5.81;100.00;99121.28;4881537;28;20023;-79
2022/02/16 09:47:21;;;;;;;2.95;1.65;;;7.30;99.90;;;5.88;100.00;99114.81;4947203;28;20042;-79
2022/02/16 09:49:47;;;;;;;3.30;1.67;;;7.20;99.90;;;5.87;100.00;99107.88;4906152;28;20044;-79
2022/02/16 09:52:14;;;;;;;4.53;1.55;;;7.30;99.90;;;5.85;100.00;99104.53;4918044;28;20083;-79
2022/02/16 09:54:40;;;;;;;8.32;2.03;;;7.30;99.90;;;5.88;100.00;99093.91;4916855;28;20036;-79
2022/02/16 09:57:09;;;;;;;2.90;1.45;;;7.30;99.90;;;5.92;100.00;99084.97;4900014;28;20087;-79
2022/02/16 09:59:36;;;;;;;2.50;1.40;;;7.30;99.90;;;5.90;100.00;99084.22;4903266;28;20027;-79
2022/02/16 10:02:08;;;;;;;7.57;1.77;;;7.30;99.90;;;5.88;100.00;99074.78;4929736;28;20034;-79
2022/02/16 10:04:36;;;;;;;2.70;1.63;;;7.30;99.90;;;5.90;100.00;99055.47;4924622;28;20027;-78
2022/02/16 10:07:31;;;;;;;2.72;1.52;;;7.30;99.90;;;5.91;100.00;99064.16;4889058;28;20082;-79
2022/02/16 10:10:23;;;;;;;3.95;1.63;;;7.30;99.90;;;5.87;100.00;99046.94;4913999;28;20026;-78
2022/02/16 10:12:56;;;;;;;1.75;1.33;;;7.30;99.90;;;5.94;100.00;99040.50;4937349;28;20030;-79
2022/02/16 10:15:40;;;;;;;7.10;1.60;;;7.30;99.90;;;5.96;100.00;99041.25;4915226;28;20083;-78
2022/02/16 10:18:13;;;;;;;2.10;1.40;;;7.30;99.90;;;5.86;100.00;99025.22;4936692;28;20038;-77
2022/02/16 10:20:43;;;;;;;2.92;1.50;;;7.30;99.90;;;5.91;100.00;99017.13;4907028;28;20030;-79
2022/02/16 10:23:10;;;;;;;3.30;2.05;;;7.30;99.90;;;5.91;100.00;98978.78;4906622;28;20536;-78
2022/02/16 10:25:37;;;;;;;1.95;1.20;;;7.30;99.90;;;5.91;100.00;98980.56;4925489;28;20027;-78
2022/02/16 10:28:18;;;;;;;2.20;1.17;;;7.30;99.90;;;5.79;100.00;98979.47;4900780;28;20545;-78